sensor_id;sensor_type;location;lat;lon;timestamp;temperature;humidity
45537;DHT22;31262;51.978;5.924;2022-08-14T00:01:08;28.20;42.60
45537;DHT22;31262;51.978;5.924;2022-08-14T00:03:35;28.20;42.80
45537;DHT22;31262;51.978;5.924;2022-08-14T00:06:02;28.20;42.90
45537;DHT22;31262;51.978;5.924;2022-08-14T00:08:28;28.20;42.90
45537;DHT22;31262;51.978;5.924;2022-08-14T00:10:54;28.20;43.00
45537;DHT22;31262;51.978;5.924;2022-08-14T00:13:23;28.20;43.00
45537;DHT22;31262;51.978;5.924;2022-08-14T00:15:49;28.20;43.10
45537;DHT22;31262;51.978;5.924;2022-08-14T00:18:20;28.10;43.10
45537;DHT22;31262;51.978;5.924;2022-08-14T00:20:47;28.10;43.80
45537;DHT22;31262;51.978;5.924;2022-08-14T00:23:13;28.10;43.30
45537;DHT22;31262;51.978;5.924;2022-08-14T00:25:40;28.10;43.30
45537;DHT22;31262;51.978;5.924;2022-08-14T00:28:11;28.10;43.30
45537;DHT22;31262;51.978;5.924;2022-08-14T00:30:37;28.10;43.40
45537;DHT22;31262;51.978;5.924;2022-08-14T00:33:03;28.10;43.60
45537;DHT22;31262;51.978;5.924;2022-08-14T00:35:30;28.10;43.60
45537;DHT22;31262;51.978;5.924;2022-08-14T00:37:55;28.00;43.60
45537;DHT22;31262;51.978;5.924;2022-08-14T00:40:21;28.00;43.70
45537;DHT22;31262;51.978;5.924;2022-08-14T00:42:47;28.00;43.80
45537;DHT22;31262;51.978;5.924;2022-08-14T00:45:14;28.00;43.90
45537;DHT22;31262;51.978;5.924;2022-08-14T00:47:42;28.00;44.00
45537;DHT22;31262;51.978;5.924;2022-08-14T00:50:10;28.00;44.00
45537;DHT22;31262;51.978;5.924;2022-08-14T00:52:36;27.90;44.10
45537;DHT22;31262;51.978;5.924;2022-08-14T00:55:04;27.90;44.20
45537;DHT22;31262;51.978;5.924;2022-08-14T00:57:32;27.90;44.30
45537;DHT22;31262;51.978;5.924;2022-08-14T00:59:58;27.80;44.40
45537;DHT22;31262;51.978;5.924;2022-08-14T01:02:25;27.80;44.50
45537;DHT22;31262;51.978;5.924;2022-08-14T01:04:55;27.80;44.50
45537;DHT22;31262;51.978;5.924;2022-08-14T01:07:23;27.80;44.60
45537;DHT22;31262;51.978;5.924;2022-08-14T01:09:53;27.80;44.60
45537;DHT22;31262;51.978;5.924;2022-08-14T01:12:20;27.80;44.60
45537;DHT22;31262;51.978;5.924;2022-08-14T01:14:46;27.80;44.80
45537;DHT22;31262;51.978;5.924;2022-08-14T01:17:23;27.80;44.80
45537;DHT22;31262;51.978;5.924;2022-08-14T01:20:09;27.70;44.90
45537;DHT22;31262;51.978;5.924;2022-08-14T01:22:54;27.70;44.90
45537;DHT22;31262;51.978;5.924;2022-08-14T01:25:19;27.70;45.00
45537;DHT22;31262;51.978;5.924;2022-08-14T01:27:45;27.70;45.10
45537;DHT22;31262;51.978;5.924;2022-08-14T01:30:11;27.70;45.10
45537;DHT22;31262;51.978;5.924;2022-08-14T01:32:37;27.70;45.10
45537;DHT22;31262;51.978;5.924;2022-08-14T01:35:03;27.70;45.20
45537;DHT22;31262;51.978;5.924;2022-08-14T01:37:31;27.70;45.20
45537;DHT22;31262;51.978;5.924;2022-08-14T01:39:57;27.40;45.10
45537;DHT22;31262;51.978;5.924;2022-08-14T01:42:22;27.50;45.70
45537;DHT22;31262;51.978;5.924;2022-08-14T01:44:48;27.60;45.40
45537;DHT22;31262;51.978;5.924;2022-08-14T01:47:17;27.60;45.40
45537;DHT22;31262;51.978;5.924;2022-08-14T01:49:44;27.60;45.40
45537;DHT22;31262;51.978;5.924;2022-08-14T01:52:09;27.70;45.50
45537;DHT22;31262;51.978;5.924;2022-08-14T01:54:35;27.60;45.50
45537;DHT22;31262;51.978;5.924;2022-08-14T01:57:01;27.60;45.50
45537;DHT22;31262;51.978;5.924;2022-08-14T01:59:30;27.60;45.50
45537;DHT22;31262;51.978;5.924;2022-08-14T02:01:58;27.70;45.60
45537;DHT22;31262;51.978;5.924;2022-08-14T02:04:33;27.60;45.70
45537;DHT22;31262;51.978;5.924;2022-08-14T02:06:59;27.70;45.70
45537;DHT22;31262;51.978;5.924;2022-08-14T02:09:26;27.50;45.90
45537;DHT22;31262;51.978;5.924;2022-08-14T02:11:52;27.40;46.00
45537;DHT22;31262;51.978;5.924;2022-08-14T02:14:18;27.30;46.20
45537;DHT22;31262;51.978;5.924;2022-08-14T02:16:46;27.20;46.40
45537;DHT22;31262;51.978;5.924;2022-08-14T02:19:17;27.10;46.60
45537;DHT22;31262;51.978;5.924;2022-08-14T02:21:46;27.00;46.80
45537;DHT22;31262;51.978;5.924;2022-08-14T02:24:13;26.90;47.70
45537;DHT22;31262;51.978;5.924;2022-08-14T02:26:41;26.80;47.30
45537;DHT22;31262;51.978;5.924;2022-08-14T02:29:13;26.70;47.50
45537;DHT22;31262;51.978;5.924;2022-08-14T02:31:41;26.60;47.70
45537;DHT22;31262;51.978;5.924;2022-08-14T02:34:14;26.50;47.90
45537;DHT22;31262;51.978;5.924;2022-08-14T02:36:44;26.40;48.00
45537;DHT22;31262;51.978;5.924;2022-08-14T02:39:11;26.40;48.30
45537;DHT22;31262;51.978;5.924;2022-08-14T02:41:37;26.40;48.30
45537;DHT22;31262;51.978;5.924;2022-08-14T02:44:04;26.40;48.50
45537;DHT22;31262;51.978;5.924;2022-08-14T02:46:31;26.30;48.50
45537;DHT22;31262;51.978;5.924;2022-08-14T02:48:57;26.30;48.60
45537;DHT22;31262;51.978;5.924;2022-08-14T02:51:23;26.20;48.70
45537;DHT22;31262;51.978;5.924;2022-08-14T02:53:49;26.20;48.90
45537;DHT22;31262;51.978;5.924;2022-08-14T02:56:16;26.10;49.00
45537;DHT22;31262;51.978;5.924;2022-08-14T02:58:46;26.10;49.10
45537;DHT22;31262;51.978;5.924;2022-08-14T03:01:16;26.10;49.30
45537;DHT22;31262;51.978;5.924;2022-08-14T03:03:43;26.00;49.30
45537;DHT22;31262;51.978;5.924;2022-08-14T03:06:10;26.00;49.50
45537;DHT22;31262;51.978;5.924;2022-08-14T03:08:38;26.00;49.70
45537;DHT22;31262;51.978;5.924;2022-08-14T03:11:06;25.90;49.70
45537;DHT22;31262;51.978;5.924;2022-08-14T03:13:34;25.90;49.80
45537;DHT22;31262;51.978;5.924;2022-08-14T03:16:02;25.80;50.00
45537;DHT22;31262;51.978;5.924;2022-08-14T03:18:28;25.80;50.20
45537;DHT22;31262;51.978;5.924;2022-08-14T03:20:54;25.70;50.30
45537;DHT22;31262;51.978;5.924;2022-08-14T03:23:20;25.60;50.40
45537;DHT22;31262;51.978;5.924;2022-08-14T03:25:46;25.60;50.60
45537;DHT22;31262;51.978;5.924;2022-08-14T03:28:13;25.40;50.70
45537;DHT22;31262;51.978;5.924;2022-08-14T03:30:39;25.40;50.90
45537;DHT22;31262;51.978;5.924;2022-08-14T03:33:06;25.40;51.00
45537;DHT22;31262;51.978;5.924;2022-08-14T03:35:32;25.40;51.10
45537;DHT22;31262;51.978;5.924;2022-08-14T03:38:09;25.40;51.80
45537;DHT22;31262;51.978;5.924;2022-08-14T03:40:36;25.30;51.10
45537;DHT22;31262;51.978;5.924;2022-08-14T03:43:07;25.20;51.40
45537;DHT22;31262;51.978;5.924;2022-08-14T03:45:33;25.20;51.80
45537;DHT22;31262;51.978;5.924;2022-08-14T03:48:01;25.10;51.90
45537;DHT22;31262;51.978;5.924;2022-08-14T03:50:29;25.10;52.10
45537;DHT22;31262;51.978;5.924;2022-08-14T03:52:57;25.00;52.20
45537;DHT22;31262;51.978;5.924;2022-08-14T03:55:23;25.00;52.20
45537;DHT22;31262;51.978;5.924;2022-08-14T03:57:48;25.00;52.20
45537;DHT22;31262;51.978;5.924;2022-08-14T04:00:14;25.00;52.30
45537;DHT22;31262;51.978;5.924;2022-08-14T04:02:40;25.00;52.30
45537;DHT22;31262;51.978;5.924;2022-08-14T04:05:09;25.10;52.30
45537;DHT22;31262;51.978;5.924;2022-08-14T04:07:35;25.10;52.20
45537;DHT22;31262;51.978;5.924;2022-08-14T04:10:04;24.80;52.00
45537;DHT22;31262;51.978;5.924;2022-08-14T04:12:30;24.90;52.50
45537;DHT22;31262;51.978;5.924;2022-08-14T04:14:56;25.00;52.40
45537;DHT22;31262;51.978;5.924;2022-08-14T04:17:23;25.00;53.00
45537;DHT22;31262;51.978;5.924;2022-08-14T04:19:49;25.20;52.30
45537;DHT22;31262;51.978;5.924;2022-08-14T04:22:14;25.30;52.00
45537;DHT22;31262;51.978;5.924;2022-08-14T04:24:40;25.40;51.70
45537;DHT22;31262;51.978;5.924;2022-08-14T04:27:07;25.60;51.50
45537;DHT22;31262;51.978;5.924;2022-08-14T04:29:39;25.70;51.30
45537;DHT22;31262;51.978;5.924;2022-08-14T04:32:07;25.80;51.10
45537;DHT22;31262;51.978;5.924;2022-08-14T04:34:33;25.90;51.00
45537;DHT22;31262;51.978;5.924;2022-08-14T04:36:59;26.00;50.90
45537;DHT22;31262;51.978;5.924;2022-08-14T04:39:43;26.10;50.80
45537;DHT22;31262;51.978;5.924;2022-08-14T04:42:27;26.10;50.70
45537;DHT22;31262;51.978;5.924;2022-08-14T04:45:11;26.20;50.50
45537;DHT22;31262;51.978;5.924;2022-08-14T04:47:39;26.20;50.40
45537;DHT22;31262;51.978;5.924;2022-08-14T04:50:23;26.30;50.30
45537;DHT22;31262;51.978;5.924;2022-08-14T04:52:49;26.30;50.20
45537;DHT22;31262;51.978;5.924;2022-08-14T04:55:14;26.40;50.10
45537;DHT22;31262;51.978;5.924;2022-08-14T04:57:40;26.40;50.00
45537;DHT22;31262;51.978;5.924;2022-08-14T05:00:07;26.40;50.00
45537;DHT22;31262;51.978;5.924;2022-08-14T05:02:33;26.50;50.00
45537;DHT22;31262;51.978;5.924;2022-08-14T05:04:59;26.50;49.80
45537;DHT22;31262;51.978;5.924;2022-08-14T05:07:25;26.50;49.80
45537;DHT22;31262;51.978;5.924;2022-08-14T05:09:51;26.50;49.70
45537;DHT22;31262;51.978;5.924;2022-08-14T05:12:17;26.50;49.70
45537;DHT22;31262;51.978;5.924;2022-08-14T05:14:42;26.50;49.80
45537;DHT22;31262;51.978;5.924;2022-08-14T05:17:10;26.50;49.60
45537;DHT22;31262;51.978;5.924;2022-08-14T05:19:36;26.50;49.60
45537;DHT22;31262;51.978;5.924;2022-08-14T05:22:02;26.50;49.60
45537;DHT22;31262;51.978;5.924;2022-08-14T05:24:28;26.50;49.60
45537;DHT22;31262;51.978;5.924;2022-08-14T05:26:54;26.60;49.70
45537;DHT22;31262;51.978;5.924;2022-08-14T05:29:20;26.60;49.60
45537;DHT22;31262;51.978;5.924;2022-08-14T05:31:45;26.60;49.70
45537;DHT22;31262;51.978;5.924;2022-08-14T05:34:11;26.60;49.60
45537;DHT22;31262;51.978;5.924;2022-08-14T05:36:37;26.60;49.60
45537;DHT22;31262;51.978;5.924;2022-08-14T05:39:04;26.60;49.60
45537;DHT22;31262;51.978;5.924;2022-08-14T05:41:30;26.60;49.60
45537;DHT22;31262;51.978;5.924;2022-08-14T05:43:57;26.60;49.60
45537;DHT22;31262;51.978;5.924;2022-08-14T05:46:23;26.50;49.60
45537;DHT22;31262;51.978;5.924;2022-08-14T05:48:50;26.50;49.60
45537;DHT22;31262;51.978;5.924;2022-08-14T05:51:18;26.50;49.60
45537;DHT22;31262;51.978;5.924;2022-08-14T05:53:44;26.60;49.70
45537;DHT22;31262;51.978;5.924;2022-08-14T05:56:09;26.60;49.90
45537;DHT22;31262;51.978;5.924;2022-08-14T05:58:35;26.60;49.80
45537;DHT22;31262;51.978;5.924;2022-08-14T06:01:01;26.50;49.80
45537;DHT22;31262;51.978;5.924;2022-08-14T06:03:27;26.50;49.90
45537;DHT22;31262;51.978;5.924;2022-08-14T06:05:53;26.60;49.90
45537;DHT22;31262;51.978;5.924;2022-08-14T06:08:24;26.60;49.90
45537;DHT22;31262;51.978;5.924;2022-08-14T06:10:52;26.60;49.80
45537;DHT22;31262;51.978;5.924;2022-08-14T06:13:19;26.60;49.80
45537;DHT22;31262;51.978;5.924;2022-08-14T06:15:45;26.60;49.80
45537;DHT22;31262;51.978;5.924;2022-08-14T06:18:11;26.70;50.00
45537;DHT22;31262;51.978;5.924;2022-08-14T06:20:40;26.70;50.00
45537;DHT22;31262;51.978;5.924;2022-08-14T06:23:06;26.70;50.00
45537;DHT22;31262;51.978;5.924;2022-08-14T06:25:32;26.50;49.90
45537;DHT22;31262;51.978;5.924;2022-08-14T06:27:58;26.60;50.00
45537;DHT22;31262;51.978;5.924;2022-08-14T06:30:29;26.60;49.90
45537;DHT22;31262;51.978;5.924;2022-08-14T06:32:55;26.70;50.00
45537;DHT22;31262;51.978;5.924;2022-08-14T06:35:21;26.70;50.10
45537;DHT22;31262;51.978;5.924;2022-08-14T06:37:56;26.70;50.00
45537;DHT22;31262;51.978;5.924;2022-08-14T06:40:32;26.70;50.00
45537;DHT22;31262;51.978;5.924;2022-08-14T06:43:03;26.80;50.10
45537;DHT22;31262;51.978;5.924;2022-08-14T06:45:30;26.70;50.00
45537;DHT22;31262;51.978;5.924;2022-08-14T06:47:56;26.80;50.10
45537;DHT22;31262;51.978;5.924;2022-08-14T06:50:23;26.80;50.10
45537;DHT22;31262;51.978;5.924;2022-08-14T06:52:49;26.80;50.00
45537;DHT22;31262;51.978;5.924;2022-08-14T06:55:16;26.80;50.00
45537;DHT22;31262;51.978;5.924;2022-08-14T06:57:47;26.80;50.10
45537;DHT22;31262;51.978;5.924;2022-08-14T07:00:19;26.80;50.20
45537;DHT22;31262;51.978;5.924;2022-08-14T07:02:46;26.90;50.20
45537;DHT22;31262;51.978;5.924;2022-08-14T07:05:31;26.80;50.20
45537;DHT22;31262;51.978;5.924;2022-08-14T07:08:28;26.80;50.40
45537;DHT22;31262;51.978;5.924;2022-08-14T07:10:57;26.80;50.30
45537;DHT22;31262;51.978;5.924;2022-08-14T07:13:24;26.90;50.40
45537;DHT22;31262;51.978;5.924;2022-08-14T07:15:54;26.90;50.60
45537;DHT22;31262;51.978;5.924;2022-08-14T07:18:39;26.90;50.50
45537;DHT22;31262;51.978;5.924;2022-08-14T07:21:07;26.90;50.80
45537;DHT22;31262;51.978;5.924;2022-08-14T07:23:33;26.90;50.90
45537;DHT22;31262;51.978;5.924;2022-08-14T07:26:00;26.90;51.20
45537;DHT22;31262;51.978;5.924;2022-08-14T07:28:34;27.00;51.30
45537;DHT22;31262;51.978;5.924;2022-08-14T07:31:03;27.00;51.30
45537;DHT22;31262;51.978;5.924;2022-08-14T07:33:33;27.10;51.50
45537;DHT22;31262;51.978;5.924;2022-08-14T07:36:02;27.10;51.40
45537;DHT22;31262;51.978;5.924;2022-08-14T07:38:28;27.20;51.50
45537;DHT22;31262;51.978;5.924;2022-08-14T07:40:54;27.20;51.30
45537;DHT22;31262;51.978;5.924;2022-08-14T07:43:20;27.30;51.20
45537;DHT22;31262;51.978;5.924;2022-08-14T07:45:47;27.50;51.00
45537;DHT22;31262;51.978;5.924;2022-08-14T07:48:12;27.50;50.80
45537;DHT22;31262;51.978;5.924;2022-08-14T07:50:38;27.60;50.80
45537;DHT22;31262;51.978;5.924;2022-08-14T07:53:04;27.70;50.70
45537;DHT22;31262;51.978;5.924;2022-08-14T07:55:33;27.80;50.60
45537;DHT22;31262;51.978;5.924;2022-08-14T07:57:58;27.90;50.40
45537;DHT22;31262;51.978;5.924;2022-08-14T08:00:24;28.10;50.30
45537;DHT22;31262;51.978;5.924;2022-08-14T08:02:52;28.20;50.10
45537;DHT22;31262;51.978;5.924;2022-08-14T08:05:19;28.30;49.90
45537;DHT22;31262;51.978;5.924;2022-08-14T08:07:46;28.50;49.70
45537;DHT22;31262;51.978;5.924;2022-08-14T08:10:19;28.60;49.30
45537;DHT22;31262;51.978;5.924;2022-08-14T08:13:07;28.70;48.80
45537;DHT22;31262;51.978;5.924;2022-08-14T08:15:40;28.80;48.50
45537;DHT22;31262;51.978;5.924;2022-08-14T08:18:08;29.00;48.40
45537;DHT22;31262;51.978;5.924;2022-08-14T08:20:36;29.20;48.30
45537;DHT22;31262;51.978;5.924;2022-08-14T08:23:03;29.30;48.10
45537;DHT22;31262;51.978;5.924;2022-08-14T08:25:31;29.40;48.00
45537;DHT22;31262;51.978;5.924;2022-08-14T08:28:05;29.60;47.50
45537;DHT22;31262;51.978;5.924;2022-08-14T08:30:36;29.80;47.30
45537;DHT22;31262;51.978;5.924;2022-08-14T08:33:03;29.90;46.90
45537;DHT22;31262;51.978;5.924;2022-08-14T08:35:32;30.10;46.50
45537;DHT22;31262;51.978;5.924;2022-08-14T08:38:16;30.20;46.10
45537;DHT22;31262;51.978;5.924;2022-08-14T08:40:44;30.40;46.20
45537;DHT22;31262;51.978;5.924;2022-08-14T08:45:43;30.50;45.90
45537;DHT22;31262;51.978;5.924;2022-08-14T08:48:08;30.70;45.60
45537;DHT22;31262;51.978;5.924;2022-08-14T08:50:38;30.90;45.50
45537;DHT22;31262;51.978;5.924;2022-08-14T08:53:08;31.10;45.00
45537;DHT22;31262;51.978;5.924;2022-08-14T08:55:39;31.20;44.30
45537;DHT22;31262;51.978;5.924;2022-08-14T08:58:07;31.30;44.00
45537;DHT22;31262;51.978;5.924;2022-08-14T09:00:34;31.40;44.50
45537;DHT22;31262;51.978;5.924;2022-08-14T09:03:03;31.50;44.00
45537;DHT22;31262;51.978;5.924;2022-08-14T09:05:30;31.60;43.60
45537;DHT22;31262;51.978;5.924;2022-08-14T09:10:38;32.00;43.30
45537;DHT22;31262;51.978;5.924;2022-08-14T09:13:04;32.10;42.80
45537;DHT22;31262;51.978;5.924;2022-08-14T09:15:31;32.20;42.40
45537;DHT22;31262;51.978;5.924;2022-08-14T09:17:56;32.30;42.30
45537;DHT22;31262;51.978;5.924;2022-08-14T09:20:22;32.30;42.20
45537;DHT22;31262;51.978;5.924;2022-08-14T09:22:48;32.40;41.90
45537;DHT22;31262;51.978;5.924;2022-08-14T09:25:17;32.50;41.60
45537;DHT22;31262;51.978;5.924;2022-08-14T09:27:43;32.60;41.50
45537;DHT22;31262;51.978;5.924;2022-08-14T09:30:09;32.70;41.50
45537;DHT22;31262;51.978;5.924;2022-08-14T09:35:48;32.90;41.20
45537;DHT22;31262;51.978;5.924;2022-08-14T09:41:00;33.10;40.80
45537;DHT22;31262;51.978;5.924;2022-08-14T09:43:46;33.30;40.80
45537;DHT22;31262;51.978;5.924;2022-08-14T09:46:16;33.40;40.60
45537;DHT22;31262;51.978;5.924;2022-08-14T09:48:41;33.40;40.40
45537;DHT22;31262;51.978;5.924;2022-08-14T09:51:07;33.50;40.20
45537;DHT22;31262;51.978;5.924;2022-08-14T09:53:56;33.60;39.70
45537;DHT22;31262;51.978;5.924;2022-08-14T09:56:23;33.70;39.60
45537;DHT22;31262;51.978;5.924;2022-08-14T09:58:50;33.70;39.40
45537;DHT22;31262;51.978;5.924;2022-08-14T10:01:18;33.80;39.40
45537;DHT22;31262;51.978;5.924;2022-08-14T10:06:19;34.00;39.10
45537;DHT22;31262;51.978;5.924;2022-08-14T10:09:11;34.10;38.90
45537;DHT22;31262;51.978;5.924;2022-08-14T10:11:38;34.20;38.60
45537;DHT22;31262;51.978;5.924;2022-08-14T10:14:19;34.10;38.60
45537;DHT22;31262;51.978;5.924;2022-08-14T10:16:54;34.30;38.50
45537;DHT22;31262;51.978;5.924;2022-08-14T10:19:22;34.20;38.10
45537;DHT22;31262;51.978;5.924;2022-08-14T10:22:01;34.30;37.90
45537;DHT22;31262;51.978;5.924;2022-08-14T10:24:41;34.40;37.60
45537;DHT22;31262;51.978;5.924;2022-08-14T10:27:18;34.40;37.60
45537;DHT22;31262;51.978;5.924;2022-08-14T10:29:50;34.60;37.70
45537;DHT22;31262;51.978;5.924;2022-08-14T10:32:16;34.60;37.50
45537;DHT22;31262;51.978;5.924;2022-08-14T10:34:42;34.70;37.10
45537;DHT22;31262;51.978;5.924;2022-08-14T10:37:10;34.80;37.10
45537;DHT22;31262;51.978;5.924;2022-08-14T10:39:37;34.80;37.00
45537;DHT22;31262;51.978;5.924;2022-08-14T10:42:10;34.60;37.10
45537;DHT22;31262;51.978;5.924;2022-08-14T10:44:43;34.90;37.10
45537;DHT22;31262;51.978;5.924;2022-08-14T10:47:13;35.00;36.70
45537;DHT22;31262;51.978;5.924;2022-08-14T10:49:40;35.00;36.20
45537;DHT22;31262;51.978;5.924;2022-08-14T10:52:22;35.10;36.40
45537;DHT22;31262;51.978;5.924;2022-08-14T10:54:48;35.20;36.40
45537;DHT22;31262;51.978;5.924;2022-08-14T10:57:25;35.20;36.20
45537;DHT22;31262;51.978;5.924;2022-08-14T11:05:11;35.70;35.90
45537;DHT22;31262;51.978;5.924;2022-08-14T11:07:40;35.70;35.50
45537;DHT22;31262;51.978;5.924;2022-08-14T11:10:09;35.70;35.40
45537;DHT22;31262;51.978;5.924;2022-08-14T11:12:44;35.80;35.50
45537;DHT22;31262;51.978;5.924;2022-08-14T11:15:16;36.00;35.30
45537;DHT22;31262;51.978;5.924;2022-08-14T11:17:42;36.00;35.00
45537;DHT22;31262;51.978;5.924;2022-08-14T11:20:10;36.00;34.70
45537;DHT22;31262;51.978;5.924;2022-08-14T11:22:38;36.00;34.40
45537;DHT22;31262;51.978;5.924;2022-08-14T11:25:07;36.10;34.10
45537;DHT22;31262;51.978;5.924;2022-08-14T11:27:33;36.20;34.20
45537;DHT22;31262;51.978;5.924;2022-08-14T11:30:24;36.20;34.00
45537;DHT22;31262;51.978;5.924;2022-08-14T11:32:51;36.40;34.10
45537;DHT22;31262;51.978;5.924;2022-08-14T11:35:24;36.40;33.90
45537;DHT22;31262;51.978;5.924;2022-08-14T11:37:59;36.40;33.70
45537;DHT22;31262;51.978;5.924;2022-08-14T11:40:28;36.50;33.90
45537;DHT22;31262;51.978;5.924;2022-08-14T11:42:54;36.40;33.50
45537;DHT22;31262;51.978;5.924;2022-08-14T11:45:24;36.40;33.20
45537;DHT22;31262;51.978;5.924;2022-08-14T11:47:52;36.40;33.20
45537;DHT22;31262;51.978;5.924;2022-08-14T11:50:22;36.40;33.20
45537;DHT22;31262;51.978;5.924;2022-08-14T11:52:49;36.50;33.30
45537;DHT22;31262;51.978;5.924;2022-08-14T11:55:16;36.60;32.90
45537;DHT22;31262;51.978;5.924;2022-08-14T11:57:43;36.70;32.60
45537;DHT22;31262;51.978;5.924;2022-08-14T12:00:14;36.70;32.50
45537;DHT22;31262;51.978;5.924;2022-08-14T12:02:56;36.80;32.60
45537;DHT22;31262;51.978;5.924;2022-08-14T12:05:48;36.70;32.70
45537;DHT22;31262;51.978;5.924;2022-08-14T12:08:13;36.60;32.70
45537;DHT22;31262;51.978;5.924;2022-08-14T12:10:41;36.70;32.20
45537;DHT22;31262;51.978;5.924;2022-08-14T12:13:17;36.80;31.80
45537;DHT22;31262;51.978;5.924;2022-08-14T12:15:45;37.00;32.20
45537;DHT22;31262;51.978;5.924;2022-08-14T12:18:14;37.00;32.10
45537;DHT22;31262;51.978;5.924;2022-08-14T12:20:41;37.00;31.50
45537;DHT22;31262;51.978;5.924;2022-08-14T12:23:20;37.00;31.40
45537;DHT22;31262;51.978;5.924;2022-08-14T12:25:47;37.10;31.60
45537;DHT22;31262;51.978;5.924;2022-08-14T12:28:13;37.10;31.80
45537;DHT22;31262;51.978;5.924;2022-08-14T12:30:42;37.10;31.50
45537;DHT22;31262;51.978;5.924;2022-08-14T12:33:28;37.10;31.70
45537;DHT22;31262;51.978;5.924;2022-08-14T12:35:56;37.20;31.60
45537;DHT22;31262;51.978;5.924;2022-08-14T12:38:37;37.10;31.30
45537;DHT22;31262;51.978;5.924;2022-08-14T12:41:09;37.20;31.50
45537;DHT22;31262;51.978;5.924;2022-08-14T12:43:49;37.30;31.20
45537;DHT22;31262;51.978;5.924;2022-08-14T12:46:22;37.40;31.20
45537;DHT22;31262;51.978;5.924;2022-08-14T12:48:48;37.30;31.30
45537;DHT22;31262;51.978;5.924;2022-08-14T12:51:22;37.20;31.10
45537;DHT22;31262;51.978;5.924;2022-08-14T12:53:51;37.20;31.60
45537;DHT22;31262;51.978;5.924;2022-08-14T12:56:18;37.00;31.80
45537;DHT22;31262;51.978;5.924;2022-08-14T12:58:49;36.90;31.50
45537;DHT22;31262;51.978;5.924;2022-08-14T13:01:26;37.00;31.20
45537;DHT22;31262;51.978;5.924;2022-08-14T13:04:05;37.10;31.30
45537;DHT22;31262;51.978;5.924;2022-08-14T13:06:33;37.10;31.30
45537;DHT22;31262;51.978;5.924;2022-08-14T13:08:59;37.00;31.10
45537;DHT22;31262;51.978;5.924;2022-08-14T13:11:32;37.10;31.00
45537;DHT22;31262;51.978;5.924;2022-08-14T13:14:01;37.10;31.00
45537;DHT22;31262;51.978;5.924;2022-08-14T13:16:28;37.10;30.90
45537;DHT22;31262;51.978;5.924;2022-08-14T13:18:56;37.20;31.30
45537;DHT22;31262;51.978;5.924;2022-08-14T13:21:26;37.10;31.70
45537;DHT22;31262;51.978;5.924;2022-08-14T13:23:53;37.00;31.70
45537;DHT22;31262;51.978;5.924;2022-08-14T13:26:24;37.00;31.50
45537;DHT22;31262;51.978;5.924;2022-08-14T13:28:51;37.00;31.60
45537;DHT22;31262;51.978;5.924;2022-08-14T13:31:21;36.90;31.30
45537;DHT22;31262;51.978;5.924;2022-08-14T13:33:48;37.00;31.60
45537;DHT22;31262;51.978;5.924;2022-08-14T13:36:15;37.10;30.90
45537;DHT22;31262;51.978;5.924;2022-08-14T13:38:42;37.10;31.00
45537;DHT22;31262;51.978;5.924;2022-08-14T13:41:09;37.10;31.30
45537;DHT22;31262;51.978;5.924;2022-08-14T13:43:36;36.80;31.40
45537;DHT22;31262;51.978;5.924;2022-08-14T13:46:04;36.80;31.20
45537;DHT22;31262;51.978;5.924;2022-08-14T13:48:30;36.80;31.30
45537;DHT22;31262;51.978;5.924;2022-08-14T13:50:57;36.80;31.60
45537;DHT22;31262;51.978;5.924;2022-08-14T13:53:25;36.80;31.40
45537;DHT22;31262;51.978;5.924;2022-08-14T13:55:54;36.70;31.60
45537;DHT22;31262;51.978;5.924;2022-08-14T13:58:23;36.70;31.80
45537;DHT22;31262;51.978;5.924;2022-08-14T14:00:50;36.70;31.50
45537;DHT22;31262;51.978;5.924;2022-08-14T14:03:20;36.70;31.40
45537;DHT22;31262;51.978;5.924;2022-08-14T14:05:49;36.70;31.50
45537;DHT22;31262;51.978;5.924;2022-08-14T14:08:16;36.70;30.80
45537;DHT22;31262;51.978;5.924;2022-08-14T14:10:43;36.70;30.60
45537;DHT22;31262;51.978;5.924;2022-08-14T14:13:09;36.70;31.30
45537;DHT22;31262;51.978;5.924;2022-08-14T14:15:38;36.60;31.20
45537;DHT22;31262;51.978;5.924;2022-08-14T14:18:04;36.60;30.80
45537;DHT22;31262;51.978;5.924;2022-08-14T14:20:30;36.60;30.50
45537;DHT22;31262;51.978;5.924;2022-08-14T14:22:55;36.70;30.80
45537;DHT22;31262;51.978;5.924;2022-08-14T14:25:21;36.70;30.80
45537;DHT22;31262;51.978;5.924;2022-08-14T14:27:48;36.60;31.30
45537;DHT22;31262;51.978;5.924;2022-08-14T14:30:15;36.60;30.90
45537;DHT22;31262;51.978;5.924;2022-08-14T14:32:44;36.50;30.20
45537;DHT22;31262;51.978;5.924;2022-08-14T14:35:12;36.50;30.30
45537;DHT22;31262;51.978;5.924;2022-08-14T14:37:44;36.40;30.60
45537;DHT22;31262;51.978;5.924;2022-08-14T14:40:12;36.20;30.60
45537;DHT22;31262;51.978;5.924;2022-08-14T14:42:45;36.10;30.80
45537;DHT22;31262;51.978;5.924;2022-08-14T14:45:12;36.10;30.70
45537;DHT22;31262;51.978;5.924;2022-08-14T14:47:41;36.00;30.60
45537;DHT22;31262;51.978;5.924;2022-08-14T14:50:09;35.90;31.20
45537;DHT22;31262;51.978;5.924;2022-08-14T14:52:35;35.80;31.10
45537;DHT22;31262;51.978;5.924;2022-08-14T14:55:01;35.80;31.10
45537;DHT22;31262;51.978;5.924;2022-08-14T14:57:28;35.80;30.90
45537;DHT22;31262;51.978;5.924;2022-08-14T14:59:55;35.80;31.30
45537;DHT22;31262;51.978;5.924;2022-08-14T15:02:35;35.80;31.70
45537;DHT22;31262;51.978;5.924;2022-08-14T15:05:01;35.80;31.50
45537;DHT22;31262;51.978;5.924;2022-08-14T15:07:28;35.80;31.70
45537;DHT22;31262;51.978;5.924;2022-08-14T15:09:54;35.70;32.00
45537;DHT22;31262;51.978;5.924;2022-08-14T15:12:19;35.60;31.90
45537;DHT22;31262;51.978;5.924;2022-08-14T15:14:45;35.60;32.00
45537;DHT22;31262;51.978;5.924;2022-08-14T15:17:11;35.60;31.60
45537;DHT22;31262;51.978;5.924;2022-08-14T15:19:37;35.70;31.50
45537;DHT22;31262;51.978;5.924;2022-08-14T15:22:02;35.60;31.70
45537;DHT22;31262;51.978;5.924;2022-08-14T15:24:28;35.60;31.90
45537;DHT22;31262;51.978;5.924;2022-08-14T15:26:54;35.60;31.70
45537;DHT22;31262;51.978;5.924;2022-08-14T15:29:21;35.60;32.70
45537;DHT22;31262;51.978;5.924;2022-08-14T15:31:47;35.50;32.10
45537;DHT22;31262;51.978;5.924;2022-08-14T15:34:12;35.40;32.70
45537;DHT22;31262;51.978;5.924;2022-08-14T15:36:43;35.30;32.60
45537;DHT22;31262;51.978;5.924;2022-08-14T15:39:10;35.30;32.70
45537;DHT22;31262;51.978;5.924;2022-08-14T15:41:37;35.20;32.90
45537;DHT22;31262;51.978;5.924;2022-08-14T15:44:03;35.20;32.90
45537;DHT22;31262;51.978;5.924;2022-08-14T15:46:29;35.20;32.80
45537;DHT22;31262;51.978;5.924;2022-08-14T15:48:54;35.20;33.20
45537;DHT22;31262;51.978;5.924;2022-08-14T15:51:20;35.10;33.20
45537;DHT22;31262;51.978;5.924;2022-08-14T15:53:45;35.10;33.60
45537;DHT22;31262;51.978;5.924;2022-08-14T15:56:11;35.00;33.40
45537;DHT22;31262;51.978;5.924;2022-08-14T15:58:40;34.90;33.70